Southam, North Dakota
Current Conditions -  °F | °C
As of 10:15 PM on Sunday 21 Dec 2014 (Local Time) from KDVL Reporting Station
Overcast Overcast  
Wind Chill: 20°   Ceiling: 200
Heat Index: 30°   Visibility: 2.5mi
Dew Point: 25°   Wind: 14mph
Humidity: 80%   Direction: 160°SSE
Pressure: 29.49"   Gusts: NA
Location:  48.0187°N, 98.6029°W
Report Text: KDVL 220415Z AUTO 16012KT 2 1/2SM OVC002 M01/M04 A2949 RMK AO1
Loading
Personal Weather Stations






























Interactive Weather Map New forecast layout! Learn more

10-Day Weather Forecast

Advertisements
Track Severe Weather on mobile